createdAt,value
2022-12-16T00:01:24.615Z,6.83
2022-12-16T00:03:54.921Z,6.47
2022-12-16T00:06:24.404Z,8.03
2022-12-16T00:08:52.967Z,8.63
2022-12-16T00:11:23.546Z,9.33
2022-12-16T00:13:51.953Z,6.37
2022-12-16T00:16:21.556Z,6.43
2022-12-16T00:18:51.774Z,7.70
2022-12-16T00:21:20.701Z,5.63
2022-12-16T00:23:49.417Z,5.93
2022-12-16T00:26:17.914Z,5.43
2022-12-16T00:28:47.796Z,7.03
2022-12-16T00:31:16.225Z,5.90
2022-12-16T00:33:44.660Z,5.50
2022-12-16T00:36:13.044Z,6.17
2022-12-16T00:38:41.462Z,6.90
2022-12-16T00:41:09.866Z,6.40
2022-12-16T00:43:38.284Z,5.33
2022-12-16T00:46:08.736Z,6.03
2022-12-16T00:48:37.209Z,7.33
2022-12-16T00:51:05.778Z,5.47
2022-12-16T00:53:34.545Z,5.70
2022-12-16T00:56:03.714Z,5.67
2022-12-16T00:58:32.135Z,5.87
2022-12-16T01:01:00.642Z,5.87
2022-12-16T01:03:30.576Z,5.03
2022-12-16T01:05:59.101Z,4.77
2022-12-16T01:08:27.555Z,5.97
2022-12-16T01:10:56.965Z,6.83
2022-12-16T01:13:25.788Z,6.20
2022-12-16T01:15:54.736Z,5.53
2022-12-16T01:18:23.195Z,4.40
2022-12-16T01:20:52.952Z,5.20
2022-12-16T01:23:23.638Z,4.97
2022-12-16T01:25:54.400Z,4.77
2022-12-16T01:28:23.765Z,5.70
2022-12-16T01:30:57.200Z,5.43
2022-12-16T01:33:25.661Z,4.73
2022-12-16T01:36:01.484Z,4.07
2022-12-16T01:38:29.928Z,4.40
2022-12-16T01:40:58.645Z,4.30
2022-12-16T01:43:28.160Z,3.87
2022-12-16T01:46:00.622Z,5.30
2022-12-16T01:48:43.103Z,3.70
2022-12-16T01:51:15.785Z,3.50
2022-12-16T01:53:44.871Z,3.33
2022-12-16T01:56:15.032Z,4.70
2022-12-16T01:58:44.497Z,3.37
2022-12-16T02:01:12.993Z,3.53
2022-12-16T02:03:41.484Z,3.87
2022-12-16T02:06:09.940Z,3.43
2022-12-16T02:08:39.762Z,3.20
2022-12-16T02:11:16.920Z,3.90
2022-12-16T02:13:54.708Z,3.43
2022-12-16T02:16:26.101Z,4.00
2022-12-16T02:18:57.596Z,3.73
2022-12-16T02:21:30.368Z,3.40
2022-12-16T02:24:10.815Z,4.17
2022-12-16T02:26:54.561Z,3.53
2022-12-16T02:29:38.934Z,4.43
2022-12-16T02:32:11.459Z,3.83
2022-12-16T02:34:44.376Z,3.80
2022-12-16T02:37:16.440Z,3.90
2022-12-16T02:39:46.734Z,4.20
2022-12-16T02:42:18.400Z,4.27
2022-12-16T02:44:50.806Z,4.00
2022-12-16T02:47:20.605Z,5.30
2022-12-16T02:49:50.386Z,6.80
2022-12-16T02:52:20.613Z,4.13
2022-12-16T02:54:49.954Z,4.10
2022-12-16T02:57:25.172Z,4.93
2022-12-16T02:59:59.253Z,6.57
2022-12-16T03:02:32.866Z,5.63
2022-12-16T03:05:04.779Z,5.50
2022-12-16T03:07:34.692Z,5.50
2022-12-16T03:10:04.380Z,5.10
2022-12-16T03:12:33.173Z,5.20
2022-12-16T03:15:02.081Z,5.10
2022-12-16T03:17:32.441Z,5.27
2022-12-16T03:20:06.027Z,5.77
2022-12-16T03:22:36.281Z,5.77
2022-12-16T03:25:05.561Z,6.10
2022-12-16T03:27:37.612Z,5.97
2022-12-16T03:30:07.770Z,6.20
2022-12-16T03:32:39.320Z,6.20
2022-12-16T03:35:12.131Z,5.17
2022-12-16T03:37:42.004Z,5.83
2022-12-16T03:40:11.736Z,6.70
2022-12-16T03:42:41.221Z,6.53
2022-12-16T03:45:11.447Z,7.53
2022-12-16T03:47:41.316Z,8.67
2022-12-16T03:50:09.999Z,7.10
2022-12-16T03:52:38.481Z,7.03
2022-12-16T03:55:07.002Z,7.27
2022-12-16T03:57:35.397Z,6.50
2022-12-16T04:00:03.930Z,6.63
2022-12-16T04:02:32.526Z,8.60
2022-12-16T04:05:02.517Z,7.93
2022-12-16T04:07:31.220Z,7.30
2022-12-16T04:09:59.653Z,6.57
2022-12-16T04:12:48.152Z,7.70
2022-12-16T04:15:34.037Z,6.53
2022-12-16T04:18:20.265Z,7.03
2022-12-16T04:21:10.922Z,6.83
2022-12-16T04:24:01.470Z,9.77
2022-12-16T04:26:30.572Z,10.23
2022-12-16T04:28:59.143Z,16.30
2022-12-16T04:31:27.635Z,21.77
2022-12-16T04:34:13.528Z,22.90
2022-12-16T04:37:01.019Z,20.07
2022-12-16T04:39:47.147Z,22.17
2022-12-16T04:42:33.008Z,23.60
2022-12-16T04:45:19.088Z,19.83
2022-12-16T04:48:04.965Z,21.27
2022-12-16T04:50:51.121Z,18.13
2022-12-16T04:53:38.197Z,16.80
2022-12-16T04:56:24.442Z,14.53
2022-12-16T04:59:09.947Z,20.53
2022-12-16T05:01:55.658Z,19.30
2022-12-16T05:04:41.330Z,14.97
2022-12-16T05:07:27.163Z,20.27
2022-12-16T05:10:14.203Z,20.17
2022-12-16T05:12:59.822Z,17.97
2022-12-16T05:15:45.613Z,17.67
2022-12-16T05:18:32.561Z,18.67
2022-12-16T05:21:19.107Z,18.17
2022-12-16T05:24:05.104Z,18.67
2022-12-16T05:26:52.623Z,16.97
2022-12-16T05:29:38.656Z,18.53
2022-12-16T05:32:24.803Z,19.47
2022-12-16T05:35:10.682Z,21.23
2022-12-16T05:37:56.754Z,20.17
2022-12-16T05:40:42.735Z,22.00
2022-12-16T05:43:32.799Z,30.67
2022-12-16T05:46:19.178Z,33.07
2022-12-16T05:49:05.281Z,31.00
2022-12-16T05:51:51.040Z,36.50
2022-12-16T05:54:36.981Z,33.50
2022-12-16T05:57:22.887Z,37.73
2022-12-16T06:00:10.425Z,37.80
2022-12-16T06:02:56.447Z,37.40
2022-12-16T06:05:42.742Z,37.73
2022-12-16T06:08:28.585Z,33.97
2022-12-16T06:11:14.749Z,35.63
2022-12-16T06:13:59.761Z,35.83
2022-12-16T06:16:47.353Z,33.77
2022-12-16T06:19:33.139Z,35.43
2022-12-16T06:22:18.974Z,37.97
2022-12-16T06:25:04.992Z,38.17
2022-12-16T06:27:51.235Z,41.97
2022-12-16T06:30:37.290Z,37.33
2022-12-16T06:33:24.997Z,39.07
2022-12-16T06:36:13.096Z,37.43
2022-12-16T06:38:59.134Z,41.23
2022-12-16T06:41:45.341Z,48.17
2022-12-16T06:44:31.477Z,36.20
2022-12-16T06:47:17.408Z,44.80
2022-12-16T06:50:04.939Z,44.57
2022-12-16T06:52:50.852Z,37.13
2022-12-16T06:55:37.026Z,50.70
2022-12-16T06:58:22.937Z,38.03
2022-12-16T07:01:11.141Z,54.37
2022-12-16T07:03:56.980Z,56.00
2022-12-16T07:06:44.281Z,36.10
2022-12-16T07:09:30.374Z,57.30
2022-12-16T07:12:16.526Z,49.27
2022-12-16T07:15:02.456Z,56.57
2022-12-16T07:17:48.615Z,61.07
2022-12-16T07:20:34.613Z,46.33
2022-12-16T07:23:34.009Z,54.63
2022-12-16T07:26:20.024Z,45.60
2022-12-16T07:29:05.936Z,46.90
2022-12-16T07:31:51.745Z,54.00
2022-12-16T07:34:41.439Z,44.50
2022-12-16T07:37:28.788Z,51.53
2022-12-16T07:40:16.342Z,50.30
2022-12-16T07:43:02.632Z,50.10
2022-12-16T07:45:48.915Z,54.63
2022-12-16T07:48:35.095Z,49.53
2022-12-16T07:51:21.170Z,54.67
2022-12-16T07:54:12.583Z,61.37
2022-12-16T07:57:00.329Z,61.07
2022-12-16T07:59:46.416Z,62.30
2022-12-16T08:02:32.357Z,58.93
2022-12-16T08:05:18.790Z,54.20
2022-12-16T08:08:04.881Z,60.60
2022-12-16T08:10:50.766Z,53.97
2022-12-16T08:13:38.591Z,55.47
2022-12-16T08:16:25.319Z,58.47
2022-12-16T08:19:11.628Z,71.90
2022-12-16T08:21:58.069Z,74.93
2022-12-16T08:24:49.732Z,70.83
2022-12-16T08:27:39.509Z,69.83
2022-12-16T08:30:28.140Z,68.67
2022-12-16T08:33:19.265Z,76.33
2022-12-16T08:36:20.859Z,63.87
2022-12-16T08:39:06.878Z,70.17
2022-12-16T08:42:00.958Z,72.00
2022-12-16T08:44:46.835Z,68.07
2022-12-16T08:47:34.437Z,64.13
2022-12-16T08:50:20.568Z,70.37
2022-12-16T08:53:06.648Z,69.47
2022-12-16T08:55:55.728Z,72.50
2022-12-16T08:58:42.360Z,59.00
2022-12-16T09:01:28.265Z,55.43
2022-12-16T09:04:15.866Z,54.00
2022-12-16T09:07:16.443Z,42.87
2022-12-16T09:10:02.051Z,36.33
2022-12-16T09:12:48.136Z,51.77
2022-12-16T09:15:34.249Z,56.20
2022-12-16T09:18:20.360Z,57.30
2022-12-16T09:21:07.922Z,55.47
2022-12-16T09:23:53.832Z,61.47
2022-12-16T09:26:40.257Z,56.27
2022-12-16T09:29:22.622Z,58.20
2022-12-16T09:32:08.797Z,57.63
2022-12-16T09:34:54.842Z,58.13
2022-12-16T09:37:56.914Z,51.27
2022-12-16T09:40:42.896Z,51.17
2022-12-16T09:43:32.529Z,57.70
2022-12-16T09:46:21.940Z,62.73
2022-12-16T09:49:11.206Z,65.30
2022-12-16T09:51:58.684Z,63.47
2022-12-16T09:54:48.391Z,61.63
2022-12-16T09:57:35.022Z,51.30
2022-12-16T10:00:24.688Z,57.07
2022-12-16T10:03:10.649Z,56.87
2022-12-16T10:06:03.229Z,57.37
2022-12-16T10:08:53.722Z,58.20
2022-12-16T10:11:43.364Z,55.90
2022-12-16T10:14:32.043Z,54.83
2022-12-16T10:17:23.484Z,56.30
2022-12-16T10:20:11.767Z,57.50
2022-12-16T10:23:05.023Z,53.93
2022-12-16T10:25:54.876Z,61.57
2022-12-16T10:28:50.659Z,55.30
2022-12-16T10:31:36.454Z,56.53
2022-12-16T10:34:23.021Z,62.60
2022-12-16T10:37:14.239Z,65.93
2022-12-16T10:40:04.485Z,67.70
2022-12-16T10:42:52.096Z,68.33
2022-12-16T10:45:42.778Z,81.00
2022-12-16T10:48:30.214Z,69.73
2022-12-16T10:51:18.783Z,71.60
2022-12-16T10:54:06.004Z,64.00
2022-12-16T10:57:01.634Z,67.77
2022-12-16T10:59:54.361Z,67.13
2022-12-16T11:02:44.294Z,82.57
2022-12-16T11:05:42.873Z,71.03
2022-12-16T11:08:42.017Z,63.80
2022-12-16T11:11:32.314Z,61.23
2022-12-16T11:14:35.183Z,64.17
2022-12-16T11:17:38.086Z,83.53
2022-12-16T11:20:27.825Z,63.03
2022-12-16T11:23:26.829Z,62.00
2022-12-16T11:26:31.767Z,61.83
2022-12-16T11:29:38.269Z,63.67
2022-12-16T11:32:28.438Z,82.60
2022-12-16T11:35:15.610Z,65.47
2022-12-16T11:38:03.880Z,62.27
2022-12-16T11:40:50.975Z,59.77
2022-12-16T11:43:37.870Z,60.73
2022-12-16T11:46:28.182Z,86.97
2022-12-16T11:49:21.894Z,66.90
2022-12-16T11:52:35.464Z,61.70
2022-12-16T11:55:35.962Z,63.87
2022-12-16T11:58:34.960Z,59.67
2022-12-16T12:01:23.077Z,87.00
2022-12-16T12:04:10.189Z,65.33
2022-12-16T12:07:05.280Z,64.53
2022-12-16T12:09:54.814Z,71.93
2022-12-16T12:12:46.073Z,74.50
2022-12-16T12:15:37.594Z,95.73
2022-12-16T12:18:27.824Z,80.80
2022-12-16T12:21:16.441Z,74.87
2022-12-16T12:24:13.358Z,78.97
2022-12-16T12:27:03.626Z,77.53
2022-12-16T12:29:53.113Z,126.33
2022-12-16T12:32:41.597Z,77.23
2022-12-16T12:35:36.659Z,68.27
2022-12-16T12:38:27.154Z,65.93
2022-12-16T12:41:15.616Z,72.07
2022-12-16T12:44:08.818Z,108.57
2022-12-16T12:46:59.039Z,69.37
2022-12-16T12:49:48.203Z,71.83
2022-12-16T12:52:42.186Z,69.50
2022-12-16T12:55:30.181Z,76.07
2022-12-16T12:58:17.733Z,103.83
2022-12-16T13:01:06.739Z,66.57
2022-12-16T13:03:57.519Z,67.33
2022-12-16T13:06:43.983Z,110.73
2022-12-16T13:09:43.892Z,73.87
2022-12-16T13:12:40.718Z,65.50
2022-12-16T13:15:27.126Z,102.73
2022-12-16T13:18:31.587Z,83.23
2022-12-16T13:21:19.047Z,68.17
2022-12-16T13:24:05.358Z,68.37
2022-12-16T13:26:52.964Z,107.83
2022-12-16T13:29:40.057Z,64.70
2022-12-16T13:32:35.853Z,64.67
2022-12-16T13:35:23.329Z,112.87
2022-12-16T13:38:14.183Z,74.33
2022-12-16T13:41:17.983Z,67.73
2022-12-16T13:44:06.169Z,106.37
2022-12-16T13:47:02.913Z,91.87
2022-12-16T13:50:00.542Z,80.73
2022-12-16T13:52:50.947Z,70.97
2022-12-16T13:55:40.593Z,159.73
2022-12-16T13:58:32.717Z,72.50
2022-12-16T14:01:35.265Z,69.70
2022-12-16T14:04:21.404Z,136.67
2022-12-16T14:07:08.842Z,73.70
2022-12-16T14:09:55.705Z,73.27
2022-12-16T14:12:59.452Z,80.87
2022-12-16T14:15:48.667Z,90.10
2022-12-16T14:18:43.586Z,78.90
2022-12-16T14:21:33.273Z,72.37
2022-12-16T14:24:20.685Z,114.20
2022-12-16T14:27:06.901Z,77.77
2022-12-16T14:29:52.855Z,75.73
2022-12-16T14:32:45.015Z,119.07
2022-12-16T14:35:31.971Z,89.63
2022-12-16T14:38:17.959Z,77.03
2022-12-16T14:41:10.215Z,73.17
2022-12-16T14:43:56.267Z,128.80
2022-12-16T14:46:46.784Z,85.20
2022-12-16T14:49:39.516Z,75.43
2022-12-16T14:52:35.228Z,124.40
2022-12-16T14:55:30.604Z,88.87
2022-12-16T14:58:24.410Z,80.83
2022-12-16T15:01:15.508Z,122.47
2022-12-16T15:04:03.542Z,92.23
2022-12-16T15:06:52.404Z,85.73
2022-12-16T15:09:43.737Z,132.73
2022-12-16T15:12:31.836Z,86.53
2022-12-16T15:15:18.576Z,82.63
2022-12-16T15:18:07.301Z,139.40
2022-12-16T15:20:54.859Z,93.77
2022-12-16T15:23:43.840Z,86.37
2022-12-16T15:26:36.104Z,124.03
2022-12-16T15:29:22.013Z,76.33
2022-12-16T15:32:08.046Z,76.63
2022-12-16T15:35:06.215Z,116.40
2022-12-16T15:38:00.662Z,80.63
2022-12-16T15:40:52.384Z,86.90
2022-12-16T15:43:40.537Z,117.77
2022-12-16T15:46:35.286Z,91.03
2022-12-16T15:49:21.554Z,81.77
2022-12-16T15:52:10.775Z,111.20
2022-12-16T15:55:09.101Z,81.00
2022-12-16T15:57:56.932Z,102.93
2022-12-16T16:00:43.968Z,125.40
2022-12-16T16:03:41.274Z,79.93
2022-12-16T16:06:45.228Z,86.10
2022-12-16T16:09:31.711Z,81.20
2022-12-16T16:12:17.422Z,102.47
2022-12-16T16:15:05.071Z,92.67
2022-12-16T16:17:51.212Z,78.17
2022-12-16T16:20:37.901Z,91.90
2022-12-16T16:23:23.826Z,84.23
2022-12-16T16:26:09.897Z,87.50
2022-12-16T16:28:56.026Z,91.07
2022-12-16T16:31:43.524Z,83.13
2022-12-16T16:34:29.914Z,110.33
2022-12-16T16:37:17.105Z,83.80
2022-12-16T16:40:03.799Z,93.87
2022-12-16T16:42:49.965Z,89.30
2022-12-16T16:45:35.941Z,83.13
2022-12-16T16:48:25.585Z,96.40
2022-12-16T16:51:14.583Z,81.43
2022-12-16T16:54:00.610Z,93.13
2022-12-16T16:56:47.174Z,83.20
2022-12-16T16:59:33.062Z,74.77
2022-12-16T17:02:19.217Z,98.57
2022-12-16T17:05:06.713Z,81.83
2022-12-16T17:07:54.112Z,95.73
2022-12-16T17:10:40.367Z,79.60
2022-12-16T17:13:28.497Z,71.63
2022-12-16T17:16:14.177Z,91.10
2022-12-16T17:19:00.434Z,73.97
2022-12-16T17:21:48.020Z,82.90
2022-12-16T17:24:34.033Z,83.83
2022-12-16T17:27:26.657Z,70.13
2022-12-16T17:30:12.830Z,81.83
2022-12-16T17:32:58.814Z,74.47
2022-12-16T17:35:44.640Z,86.07
2022-12-16T17:38:32.292Z,85.70
2022-12-16T17:41:18.355Z,88.90
2022-12-16T17:44:04.233Z,84.97
2022-12-16T17:46:50.083Z,87.60
2022-12-16T17:49:41.392Z,81.10
2022-12-16T17:52:27.432Z,85.63
2022-12-16T17:55:14.936Z,87.00
2022-12-16T17:58:01.168Z,87.00
2022-12-16T18:00:46.939Z,87.40
2022-12-16T18:03:33.395Z,97.37
2022-12-16T18:06:19.541Z,96.00
2022-12-16T18:09:05.302Z,93.93
2022-12-16T18:11:52.851Z,91.10
2022-12-16T18:14:38.797Z,80.37
2022-12-16T18:17:24.633Z,81.27
2022-12-16T18:20:10.720Z,87.40
2022-12-16T18:22:52.970Z,81.37
2022-12-16T18:25:39.141Z,81.70
2022-12-16T18:28:26.945Z,88.73
2022-12-16T18:31:13.068Z,81.20
2022-12-16T18:33:58.910Z,85.50
2022-12-16T18:36:44.340Z,83.17
2022-12-16T18:39:30.319Z,82.40
2022-12-16T18:42:16.289Z,78.17
2022-12-16T18:45:03.847Z,81.03
2022-12-16T18:47:49.773Z,78.90
2022-12-16T18:50:37.957Z,76.73
2022-12-16T18:53:24.584Z,66.03
2022-12-16T18:56:18.231Z,73.23
2022-12-16T18:59:03.952Z,70.70
2022-12-16T19:01:51.631Z,74.87
2022-12-16T19:04:37.964Z,73.60
2022-12-16T19:07:23.808Z,70.43
2022-12-16T19:10:09.780Z,71.60
2022-12-16T19:12:55.829Z,67.07
2022-12-16T19:15:42.022Z,67.80
2022-12-16T19:18:30.775Z,65.53
2022-12-16T19:21:17.238Z,71.20
2022-12-16T19:24:03.051Z,68.30
2022-12-16T19:26:49.314Z,69.97
2022-12-16T19:29:36.083Z,66.77
2022-12-16T19:32:22.089Z,71.07
2022-12-16T19:35:09.412Z,72.30
2022-12-16T19:37:55.425Z,66.40
2022-12-16T19:40:43.174Z,68.93
2022-12-16T19:43:29.015Z,68.93
2022-12-16T19:46:14.949Z,73.93
2022-12-16T19:49:00.909Z,76.20
2022-12-16T19:51:48.542Z,73.40
2022-12-16T19:54:34.410Z,72.33
2022-12-16T19:57:20.584Z,67.47
2022-12-16T20:00:17.991Z,71.83
2022-12-16T20:03:03.819Z,68.87
2022-12-16T20:05:49.961Z,74.33
2022-12-16T20:08:37.411Z,71.53
2022-12-16T20:11:24.027Z,77.77
2022-12-16T20:14:11.499Z,77.37
2022-12-16T20:16:57.469Z,76.13
2022-12-16T20:19:42.737Z,74.87
2022-12-16T20:22:29.142Z,81.83
2022-12-16T20:25:17.429Z,82.63
2022-12-16T20:28:23.221Z,77.83
2022-12-16T20:31:10.903Z,86.63
2022-12-16T20:34:02.732Z,82.43
2022-12-16T20:36:49.584Z,87.63
2022-12-16T20:39:35.356Z,84.50
2022-12-16T20:42:22.928Z,94.70
2022-12-16T20:45:08.842Z,94.83
2022-12-16T20:47:56.441Z,86.03
2022-12-16T20:50:42.438Z,85.60
2022-12-16T20:53:28.599Z,95.40
2022-12-16T20:56:14.424Z,96.70
2022-12-16T20:59:01.953Z,98.47
2022-12-16T21:02:14.661Z,90.83
2022-12-16T21:04:53.822Z,88.83
2022-12-16T21:07:41.030Z,89.53
2022-12-16T21:10:27.481Z,83.03
2022-12-16T21:13:13.377Z,88.90
2022-12-16T21:16:00.697Z,85.80
2022-12-16T21:18:46.624Z,82.73
2022-12-16T21:21:32.583Z,78.83
2022-12-16T21:24:18.821Z,83.43
2022-12-16T21:27:20.261Z,80.87
2022-12-16T21:30:06.908Z,82.63
2022-12-16T21:32:55.149Z,78.07
2022-12-16T21:35:42.735Z,80.47
2022-12-16T21:38:28.572Z,75.00
2022-12-16T21:41:14.977Z,79.93
2022-12-16T21:44:00.902Z,76.40
2022-12-16T21:46:46.693Z,79.97
2022-12-16T21:49:34.204Z,76.83
2022-12-16T21:52:20.056Z,77.57
2022-12-16T21:55:05.830Z,69.97
2022-12-16T22:01:00.597Z,70.20
2022-12-16T22:03:52.527Z,72.00
2022-12-16T22:06:45.463Z,71.93
2022-12-16T22:09:34.309Z,67.37
2022-12-16T22:12:20.350Z,69.37
2022-12-16T22:15:06.458Z,71.03
2022-12-16T22:17:58.063Z,69.50
2022-12-16T22:20:44.694Z,66.73
2022-12-16T22:23:37.595Z,65.67
2022-12-16T22:26:23.865Z,73.07
2022-12-16T22:29:11.445Z,74.43
2022-12-16T22:31:57.728Z,72.07
2022-12-16T22:34:43.470Z,74.50
2022-12-16T22:37:29.683Z,75.00
2022-12-16T22:40:16.974Z,71.83
2022-12-16T22:43:02.852Z,77.00
2022-12-16T22:45:48.922Z,72.47
2022-12-16T22:48:35.095Z,75.97
2022-12-16T22:51:21.207Z,79.50
2022-12-16T22:54:07.777Z,80.63
2022-12-16T22:56:56.328Z,83.37
2022-12-16T22:59:42.283Z,81.00
2022-12-16T23:02:28.184Z,76.73
2022-12-16T23:05:14.215Z,82.90
2022-12-16T23:08:00.019Z,84.93
2022-12-16T23:10:46.039Z,87.40
2022-12-16T23:13:33.641Z,88.57
2022-12-16T23:16:19.780Z,93.97
2022-12-16T23:19:05.992Z,93.77
2022-12-16T23:22:00.426Z,95.40
2022-12-16T23:24:46.358Z,95.47
2022-12-16T23:27:32.289Z,97.33
2022-12-16T23:30:19.560Z,91.90
2022-12-16T23:33:05.690Z,95.40
2022-12-16T23:35:51.989Z,97.60
2022-12-16T23:38:38.216Z,95.57
2022-12-16T23:41:24.065Z,93.67
2022-12-16T23:44:09.909Z,95.87
2022-12-16T23:46:57.408Z,94.00
2022-12-16T23:49:43.304Z,98.00
2022-12-16T23:52:29.182Z,93.73
2022-12-16T23:55:15.241Z,91.23
2022-12-16T23:58:01.238Z,96.60
